Pagrindinis puslapis
METAR-TAF:

METAR-TAF

Oro uostai :

Mataram, Indonezija

platuma: 08-45-29S, ilguma: 116-16-35E, Aukštis: 97 m

Dabartinis oras

Ataskaita buvo paskelbta 26 minutes, ne 07:30 UTC
Vėjas 8 kt iš Vakarų, svyruoja nuo Pietvakarių ir Vakarų/Šiaurės Vakarų
Temperatūra 32°C
Drėgmė 63%
Slėgis 1008 hPa
Matomumas: 8000 m
Su prošvaistėmis ne aukštis 1600 ft

METAR: WADL 230730Z 26008KT 230V290 8000 BKN016 32/24 Q1008 NOSIG

Laikas: 14:56 (07:56 UTC)

Prognozė

Ataskaita buvo paskelbta 2 valandos ir 56 minutes, ne 05:00 UTC
Prognozė galioja nuo 23 metu 06 UTC su 24 metu 06 UTC
Vėjas 12 kt iš Vakarų
Matomumas: 8000 m
Su prošvaistėmis ne aukštis 1600 ft

TAF: WADL 230500Z 2306/2406 28012KT 8000 BKN016

Orai ataskaitas ir orų prognozės (METAR, TAF).

turimą stotys yra geltonos ir raudonos taškus žemėlapyje.

Perkelti pele per norėdami pamatyti stoties vardą.

Tada spustelėkite, norėdami matyti oro stebėjimo ir prognozės.

Norėdami pakeisti žemėlapį: spustelėkite ant žalios mygtukų su juodo kryžiaus žemyn,; žalią mygtuką su brūkšneliu, jei norite nutolinti; arba žalių rodyklių gretimoms žemėlapius.


METAR-TAF: